Terminal Aerodrome Forecast
Issued by NWS

Home | Current Version | Previous Version | Text Only | Print | Product List | Glossary On
Versions: 1 2 3 4 5 6 7 8 9 10 11 12 13 14 15 16 17 18 19 20 21
000
FTUS43 KSGF 170520
TAFJLN
TAF
KJLN 170520Z 1706/1806 15008KT P6SM OVC035
     FM170700 16012G19KT P6SM OVC025 WS020/21045KT
     FM171000 16015G22KT P6SM OVC015 WS020/21050KT
     FM171800 19024G32KT P6SM OVC025 WS020/21050KT
     FM172200 20020G30KT P6SM OVC070 WS020/22045KT=

USA.gov is the U.S. government's official web portal to all federal, state and local government web resources and services.